Time,TemperatureF,DewpointF,PressureIn,WindDirection,WindDirectionDegrees,WindSpeedMPH,WindSpeedGustMPH,Humidity,HourlyPrecipIn,Conditions,Clouds,dailyrainin,SolarRadiationWatts/m^2,SoftwareType,DateUTC
2013-10-23 10:21:00,36.8,33.9,30.14,WNW,291,4.0,11.0,89,0.00,,,0.00,93,Wunderground v.1.15,2013-10-23 15:21:00,
2013-10-23 10:31:00,36.5,33.8,30.14,West,266,3.0,7.0,90,0.00,,,0.00,116,Wunderground v.1.15,2013-10-23 15:31:00,
2013-10-23 10:40:00,36.5,34.1,30.14,WNW,303,3.0,3.0,91,0.00,,,0.00,100,Wunderground v.1.15,2013-10-23 15:40:00,
2013-10-23 10:51:00,36.6,34.5,30.14,WNW,297,2.0,6.0,92,0.00,,,0.00,95,Wunderground v.1.15,2013-10-23 15:51:00,
2013-10-23 11:00:00,36.2,34.1,30.14,WNW,289,2.0,2.0,92,0.00,,,0.00,91,Wunderground v.1.15,2013-10-23 16:00:00,
2013-10-23 11:10:00,36.2,34.4,30.13,West,260,1.0,1.0,93,0.00,,,0.00,134,Wunderground v.1.15,2013-10-23 16:10:00,
2013-10-23 11:20:00,36.3,34.2,30.14,WSW,257,2.0,2.0,92,0.00,,,0.00,88,Wunderground v.1.15,2013-10-23 16:20:00,
2013-10-23 11:31:00,36.1,34.3,30.13,West,259,0.0,5.0,93,0.00,,,0.00,134,Wunderground v.1.15,2013-10-23 16:31:00,
2013-10-23 11:40:00,36.4,34.8,30.13,West,261,1.0,2.0,94,0.00,,,0.00,137,Wunderground v.1.15,2013-10-23 16:40:00,
2013-10-23 11:50:00,36.0,34.2,30.14,West,265,1.0,1.0,93,0.00,,,0.00,116,Wunderground v.1.15,2013-10-23 16:50:00,
2013-10-23 12:00:00,35.9,34.1,30.14,West,265,0.0,6.0,93,0.00,,,0.00,125,Wunderground v.1.15,2013-10-23 17:00:00,
2013-10-23 12:11:00,35.7,33.9,30.14,West,265,0.0,3.0,93,0.00,,,0.00,155,Wunderground v.1.15,2013-10-23 17:11:00,
2013-10-23 12:20:00,35.6,34.0,30.13,West,265,0.0,1.0,94,0.00,,,0.00,137,Wunderground v.1.15,2013-10-23 17:20:00,
2013-10-23 12:30:00,35.8,34.2,30.13,West,265,0.0,1.0,94,0.00,,,0.00,146,Wunderground v.1.15,2013-10-23 17:30:00,
2013-10-23 12:41:00,36.0,34.4,30.13,West,265,0.0,2.0,94,0.00,,,0.00,155,Wunderground v.1.15,2013-10-23 17:41:00,
2013-10-23 12:50:00,36.0,34.4,30.13,West,265,0.0,1.0,94,0.00,,,0.00,141,Wunderground v.1.15,2013-10-23 17:50:00,
2013-10-23 13:00:00,36.2,34.6,30.13,WSW,250,0.0,1.0,94,0.00,,,0.00,171,Wunderground v.1.15,2013-10-23 18:00:00,
2013-10-23 13:11:00,36.1,34.5,30.13,WSW,250,0.0,2.0,94,0.00,,,0.00,149,Wunderground v.1.15,2013-10-23 18:11:00,
2013-10-23 13:21:00,36.1,34.5,30.12,WSW,246,0.0,2.0,94,0.00,,,0.00,142,Wunderground v.1.15,2013-10-23 18:21:00,
2013-10-23 13:30:00,36.3,34.7,30.12,WSW,246,0.0,2.0,94,0.00,,,0.00,139,Wunderground v.1.15,2013-10-23 18:30:00,
2013-10-23 13:41:00,36.5,34.9,30.12,WSW,241,0.0,2.0,94,0.00,,,0.00,139,Wunderground v.1.15,2013-10-23 18:41:00,
2013-10-23 13:51:00,36.5,34.7,30.12,WSW,241,0.0,2.0,93,0.00,,,0.00,120,Wunderground v.1.15,2013-10-23 18:51:00,
2013-10-23 14:01:00,36.7,35.1,30.11,WSW,241,0.0,2.0,94,0.00,,,0.00,111,Wunderground v.1.15,2013-10-23 19:01:00,
2013-10-23 14:10:00,36.8,35.0,30.11,WSW,241,0.0,2.0,93,0.00,,,0.00,148,Wunderground v.1.15,2013-10-23 19:10:00,
2013-10-23 14:21:00,37.3,35.5,30.11,WSW,241,0.0,1.0,93,0.00,,,0.00,171,Wunderground v.1.15,2013-10-23 19:21:00,
2013-10-23 14:31:00,37.6,35.8,30.11,WSW,239,1.0,1.0,93,0.00,,,0.00,158,Wunderground v.1.15,2013-10-23 19:31:00,
2013-10-23 14:40:00,37.8,36.0,30.10,SW,236,0.0,4.0,93,0.00,,,0.00,155,Wunderground v.1.15,2013-10-23 19:40:00,
2013-10-23 14:51:00,38.1,36.3,30.11,WSW,257,2.0,2.0,93,0.00,,,0.01,97,Wunderground v.1.15,2013-10-23 19:51:00,
2013-10-23 15:01:00,38.3,36.5,30.11,WSW,258,2.0,2.0,93,0.00,,,0.01,123,Wunderground v.1.15,2013-10-23 20:01:00,
2013-10-23 15:10:00,38.4,36.6,30.11,West,279,2.0,4.0,93,0.00,,,0.01,86,Wunderground v.1.15,2013-10-23 20:10:00,
2013-10-23 15:20:00,38.4,36.6,30.11,NW,310,2.0,4.0,93,0.00,,,0.01,90,Wunderground v.1.15,2013-10-23 20:20:00,
2013-10-23 15:31:00,38.7,36.9,30.11,West,261,2.0,4.0,93,0.00,,,0.01,144,Wunderground v.1.15,2013-10-23 20:31:00,
2013-10-23 15:41:00,39.1,37.2,30.12,West,271,2.0,5.0,93,0.00,,,0.01,135,Wunderground v.1.15,2013-10-23 20:41:00,
2013-10-23 15:50:00,39.3,37.2,30.12,West,275,2.0,5.0,92,0.00,,,0.01,130,Wunderground v.1.15,2013-10-23 20:50:00,
2013-10-23 16:00:00,39.4,37.3,30.12,West,264,3.0,3.0,92,0.00,,,0.01,116,Wunderground v.1.15,2013-10-23 21:00:00,
2013-10-23 16:11:00,39.6,37.5,30.12,West,281,3.0,6.0,92,0.00,,,0.01,141,Wunderground v.1.15,2013-10-23 21:11:00,
2013-10-23 16:21:00,39.8,37.7,30.12,West,278,3.0,6.0,92,0.00,,,0.01,83,Wunderground v.1.15,2013-10-23 21:21:00,
2013-10-23 16:30:00,39.7,37.3,30.13,NW,324,3.0,3.0,91,0.00,,,0.01,67,Wunderground v.1.15,2013-10-23 21:30:00,
2013-10-23 16:40:00,39.5,37.1,30.13,NW,322,3.0,5.0,91,0.00,,,0.01,21,Wunderground v.1.15,2013-10-23 21:40:00,
2013-10-23 16:51:00,39.4,37.0,30.13,NW,321,4.0,4.0,91,0.00,,,0.01,19,Wunderground v.1.15,2013-10-23 21:51:00,
2013-10-23 17:00:00,39.3,37.2,30.13,NW,316,3.0,6.0,92,0.00,,,0.01,40,Wunderground v.1.15,2013-10-23 22:00:00,
2013-10-23 17:10:00,39.5,37.4,30.13,NNW,333,3.0,6.0,92,0.00,,,0.01,26,Wunderground v.1.15,2013-10-23 22:10:00,
2013-10-23 17:20:00,39.5,37.4,30.13,NNW,346,5.0,5.0,92,0.00,,,0.01,18,Wunderground v.1.15,2013-10-23 22:20:00,
2013-10-23 17:30:00,38.8,36.7,30.14,NNW,344,5.0,10.0,92,0.00,,,0.01,19,Wunderground v.1.15,2013-10-23 22:30:00,
2013-10-23 17:40:00,38.9,36.8,30.14,North,5,4.0,10.0,92,0.00,,,0.01,7,Wunderground v.1.15,2013-10-23 22:40:00,
2013-10-23 17:51:00,38.8,36.7,30.14,NW,325,4.0,10.0,92,0.00,,,0.01,7,Wunderground v.1.15,2013-10-23 22:51:00,
2013-10-23 18:01:00,38.5,36.1,30.14,NNW,337,4.0,10.0,91,0.00,,,0.01,5,Wunderground v.1.15,2013-10-23 23:01:00,
2013-10-23 18:10:00,38.5,36.1,30.15,NNW,336,5.0,5.0,91,0.00,,,0.01,0,Wunderground v.1.15,2013-10-23 23:10:00,
2013-10-23 18:21:00,38.5,36.1,30.15,NNW,327,6.0,6.0,91,0.00,,,0.01,0,Wunderground v.1.15,2013-10-23 23:21:00,
2013-10-23 18:31:00,38.5,36.1,30.15,NNW,344,6.0,6.0,91,0.00,,,0.01,0,Wunderground v.1.15,2013-10-23 23:31:00,
2013-10-23 18:41:00,38.4,36.0,30.15,NW,323,5.0,10.0,91,0.00,,,0.01,0,Wunderground v.1.15,2013-10-23 23:41:00,
2013-10-23 18:50:00,38.4,36.0,30.15,NNW,331,5.0,5.0,91,0.00,,,0.01,0,Wunderground v.1.15,2013-10-23 23:50:00,
2013-10-23 19:01:00,38.3,35.9,30.15,NNW,329,4.0,9.0,91,0.00,,,0.01,0,Wunderground v.1.15,2013-10-24 00:01:00,
2013-10-23 19:11:00,38.3,35.9,30.16,NNW,334,5.0,5.0,91,0.00,,,0.01,0,Wunderground v.1.15,2013-10-24 00:11:00,
2013-10-23 19:20:00,38.3,35.9,30.16,NW,323,4.0,7.0,91,0.00,,,0.01,0,Wunderground v.1.15,2013-10-24 00:20:00,
2013-10-23 19:30:00,38.3,35.9,30.16,NNW,333,5.0,9.0,91,0.00,,,0.01,0,Wunderground v.1.15,2013-10-24 00:30:00,
2013-10-23 19:41:00,38.2,35.8,30.17,NW,314,4.0,9.0,91,0.00,,,0.01,0,Wunderground v.1.15,2013-10-24 00:41:00,
2013-10-23 19:51:00,38.2,35.8,30.17,NNW,332,4.0,9.0,91,0.00,,,0.01,0,Wunderground v.1.15,2013-10-24 00:51:00,
2013-10-23 20:00:00,38.2,35.8,30.17,NNW,334,4.0,9.0,91,0.00,,,0.01,0,Wunderground v.1.15,2013-10-24 01:00:00,
2013-10-23 20:11:00,38.2,35.8,30.17,NW,317,4.0,4.0,91,0.00,,,0.01,0,Wunderground v.1.15,2013-10-24 01:11:00,
2013-10-23 20:21:00,38.2,35.8,30.18,NNW,327,4.0,8.0,91,0.00,,,0.02,0,Wunderground v.1.15,2013-10-24 01:21:00,
2013-10-23 20:30:00,38.2,36.1,30.18,NW,326,3.0,6.0,92,0.00,,,0.02,0,Wunderground v.1.15,2013-10-24 01:30:00,
2013-10-23 20:40:00,38.1,36.0,30.18,NW,321,3.0,6.0,92,0.00,,,0.02,0,Wunderground v.1.15,2013-10-24 01:40:00,
2013-10-23 20:51:00,38.1,36.0,30.18,NW,321,3.0,7.0,92,0.00,,,0.02,0,Wunderground v.1.15,2013-10-24 01:51:00,
2013-10-23 21:00:00,38.1,35.7,30.18,NNW,331,4.0,7.0,91,0.00,,,0.02,0,Wunderground v.1.15,2013-10-24 02:00:00,
2013-10-23 21:10:00,38.0,35.3,30.19,NW,323,5.0,7.0,90,0.00,,,0.02,0,Wunderground v.1.15,2013-10-24 02:10:00,
2013-10-23 21:20:00,37.9,34.7,30.19,North,349,5.0,5.0,88,0.00,,,0.02,0,Wunderground v.1.15,2013-10-24 02:20:00,
2013-10-23 21:31:00,37.6,33.8,30.19,North,5,5.0,5.0,86,0.00,,,0.02,0,Wunderground v.1.15,2013-10-24 02:31:00,
2013-10-23 21:41:00,37.3,32.6,30.19,NNW,344,5.0,5.0,83,0.00,,,0.02,0,Wunderground v.1.15,2013-10-24 02:41:00,
2013-10-23 21:50:00,37.1,32.4,30.19,NNW,336,5.0,9.0,83,0.00,,,0.02,0,Wunderground v.1.15,2013-10-24 02:50:00,
2013-10-23 22:00:00,36.9,32.2,30.20,NNW,340,5.0,9.0,83,0.00,,,0.02,0,Wunderground v.1.15,2013-10-24 03:00:00,
2013-10-23 22:11:00,36.9,32.2,30.20,NNW,335,5.0,8.0,83,0.00,,,0.02,0,Wunderground v.1.15,2013-10-24 03:11:00,
2013-10-23 22:20:00,36.9,32.2,30.20,NNW,327,4.0,4.0,83,0.00,,,0.02,0,Wunderground v.1.15,2013-10-24 03:20:00,
2013-10-23 22:30:00,36.8,31.8,30.20,NNW,329,5.0,8.0,82,0.00,,,0.02,0,Wunderground v.1.15,2013-10-24 03:30:00,
2013-10-23 22:40:00,36.8,31.8,30.21,NNW,340,5.0,9.0,82,0.00,,,0.02,0,Wunderground v.1.15,2013-10-24 03:40:00,
2013-10-23 22:51:00,36.5,31.2,30.21,NW,315,5.0,9.0,81,0.00,,,0.02,0,Wunderground v.1.15,2013-10-24 03:51:00,
2013-10-23 23:01:00,35.9,30.6,30.21,NNW,333,5.0,5.0,81,0.00,,,0.02,0,Wunderground v.1.15,2013-10-24 04:01:00,
2013-10-23 23:11:00,35.2,30.6,30.21,NW,321,5.0,11.0,83,0.00,,,0.02,0,Wunderground v.1.15,2013-10-24 04:11:00,
2013-10-23 23:21:00,34.8,30.2,30.21,NW,315,3.0,9.0,83,0.00,,,0.02,0,Wunderground v.1.15,2013-10-24 04:21:00,
2013-10-23 23:30:00,34.4,30.4,30.21,NW,321,2.0,9.0,85,0.00,,,0.02,0,Wunderground v.1.15,2013-10-24 04:30:00,
2013-10-23 23:41:00,34.1,30.1,30.21,NW,322,2.0,6.0,85,0.00,,,0.02,0,Wunderground v.1.15,2013-10-24 04:41:00,
2013-10-23 23:51:00,33.7,29.7,30.21,NW,315,1.0,1.0,85,0.00,,,0.02,0,Wunderground v.1.15,2013-10-24 04:51:00,